Terminal Aerodrome Forecast
Issued by NWS Charleston, WV

Current Version | Previous Version | Graphics & Text | Print | Product List | Glossary On
Versions: 1 2 3 4 5 6 7 8 9 10 11 12 13 14 15 16 17 18 19 20 21 22 23 24 25 26
000
FTUS41 KRLX 270200 AAA
TAFCRW
TAF AMD
KCRW 270238Z 2703/2724 00000KT P6SM BKN090
     FM270600 00000KT P6SM VCTS SCT040CB BKN060
      TEMPO 2706/2709 2SM TSRA BR BKN025CB
     FM270900 VRB03KT P6SM SCT040 BKN100
     FM271500 21006KT P6SM SCT040
     FM271900 18009G16KT P6SM +TSRA SCT045CB BKN100=

USA.gov is the U.S. government's official web portal to all federal, state and local government web resources and services.